createdAt,value
2023-02-03T00:01:46.361Z,101107.00
2023-02-03T00:04:13.529Z,101113.00
2023-02-03T00:06:40.629Z,101115.00
2023-02-03T00:09:07.549Z,101111.00
2023-02-03T00:11:34.373Z,101100.00
2023-02-03T00:14:01.183Z,101089.00
2023-02-03T00:16:28.064Z,101086.00
2023-02-03T00:18:54.959Z,101079.00
2023-02-03T00:21:21.771Z,101070.00
2023-02-03T00:23:48.592Z,101063.00
2023-02-03T00:26:18.339Z,101054.00
2023-02-03T00:28:45.540Z,101056.00
2023-02-03T00:31:20.154Z,101050.00
2023-02-03T00:33:47.953Z,101055.00
2023-02-03T00:36:14.835Z,101039.00
2023-02-03T00:38:41.608Z,101027.00
2023-02-03T00:41:08.422Z,101026.00
2023-02-03T00:43:35.254Z,101025.00
2023-02-03T00:46:02.080Z,101016.00
2023-02-03T00:48:29.766Z,101016.00
2023-02-03T00:50:56.707Z,101015.00
2023-02-03T00:53:23.494Z,101035.00
2023-02-03T00:55:50.477Z,101019.00
2023-02-03T00:58:17.298Z,101008.00
2023-02-03T01:00:44.148Z,101001.00
2023-02-03T01:03:10.972Z,100998.00
2023-02-03T01:05:37.825Z,100997.00
2023-02-03T01:08:05.094Z,100989.00
2023-02-03T01:10:32.144Z,100979.00
2023-02-03T01:12:58.944Z,100976.00
2023-02-03T01:15:25.799Z,100968.00
2023-02-03T01:17:52.708Z,100947.00
2023-02-03T01:20:21.531Z,100952.00
2023-02-03T01:22:48.734Z,100947.00
2023-02-03T01:25:15.937Z,100939.00
2023-02-03T01:27:42.737Z,100943.00
2023-02-03T01:30:10.381Z,100926.00
2023-02-03T01:32:37.178Z,100927.00
2023-02-03T01:35:04.079Z,100926.00
2023-02-03T01:37:30.876Z,100937.00
2023-02-03T01:39:57.812Z,100918.00
2023-02-03T01:42:24.656Z,100913.00
2023-02-03T01:44:52.326Z,100910.00
2023-02-03T01:47:34.975Z,100911.00
2023-02-03T01:50:21.642Z,100888.00
2023-02-03T01:52:53.588Z,100889.00
2023-02-03T01:55:23.461Z,100894.00
2023-02-03T01:57:59.428Z,100869.00
2023-02-03T02:00:26.658Z,100880.00
2023-02-03T02:02:54.385Z,100864.00
2023-02-03T02:05:35.113Z,100853.00
2023-02-03T02:08:03.195Z,100856.00
2023-02-03T02:10:30.877Z,100846.00
2023-02-03T02:12:58.306Z,100848.00
2023-02-03T02:15:49.376Z,100831.00
2023-02-03T02:18:21.795Z,100828.00
2023-02-03T02:20:51.661Z,100818.00
2023-02-03T02:23:18.389Z,100812.00
2023-02-03T02:26:15.483Z,100808.00
2023-02-03T02:28:53.631Z,100835.00
2023-02-03T02:31:51.320Z,100825.00
2023-02-03T02:34:33.977Z,100818.00
2023-02-03T02:37:02.844Z,100814.00
2023-02-03T02:39:34.232Z,100810.00
2023-02-03T02:42:25.144Z,100807.00
2023-02-03T02:44:59.172Z,100801.00
2023-02-03T02:47:26.014Z,100810.00
2023-02-03T02:50:01.394Z,100808.00
2023-02-03T02:52:31.248Z,100802.00
2023-02-03T02:55:01.644Z,100783.00
2023-02-03T02:57:30.014Z,100777.00
2023-02-03T02:59:57.038Z,100774.00
2023-02-03T03:02:32.469Z,100783.00
2023-02-03T03:04:59.452Z,100773.00
2023-02-03T03:07:27.535Z,100760.00
2023-02-03T03:10:01.061Z,100746.00
2023-02-03T03:12:34.329Z,100759.00
2023-02-03T03:15:11.552Z,100758.00
2023-02-03T03:17:42.314Z,100751.00
2023-02-03T03:20:13.126Z,100742.00
2023-02-03T03:22:44.285Z,100757.00
2023-02-03T03:25:15.966Z,100742.00
2023-02-03T03:27:49.234Z,100731.00
2023-02-03T03:30:29.537Z,100733.00
2023-02-03T03:32:58.495Z,100740.00
2023-02-03T03:35:28.518Z,100722.00
2023-02-03T03:38:12.799Z,100738.00
2023-02-03T03:40:43.658Z,100732.00
2023-02-03T03:43:16.952Z,100713.00
2023-02-03T03:46:01.741Z,100714.00
2023-02-03T03:48:35.766Z,100715.00
2023-02-03T03:51:07.250Z,100729.00
2023-02-03T03:53:35.643Z,100719.00
2023-02-03T03:56:03.633Z,100720.00
2023-02-03T03:58:32.056Z,100720.00
2023-02-03T04:01:02.947Z,100711.00
2023-02-03T04:03:38.128Z,100722.00
2023-02-03T04:06:05.788Z,100702.00
2023-02-03T04:08:32.680Z,100702.00
2023-02-03T04:10:59.502Z,100703.00
2023-02-03T04:13:26.293Z,100703.00
2023-02-03T04:15:53.151Z,100688.00
2023-02-03T04:18:20.454Z,100690.00
2023-02-03T04:20:47.267Z,100692.00
2023-02-03T04:23:14.503Z,100690.00
2023-02-03T04:25:41.317Z,100686.00
2023-02-03T04:28:08.282Z,100685.00
2023-02-03T04:30:35.429Z,100680.00
2023-02-03T04:33:02.291Z,100658.00
2023-02-03T04:35:29.121Z,100661.00
2023-02-03T04:37:56.171Z,100662.00
2023-02-03T04:40:23.510Z,100659.00
2023-02-03T04:42:50.349Z,100657.00
2023-02-03T04:45:17.229Z,100661.00
2023-02-03T04:47:44.000Z,100651.00
2023-02-03T04:50:10.809Z,100649.00
2023-02-03T04:52:37.726Z,100629.00
2023-02-03T04:55:04.829Z,100625.00
2023-02-03T04:57:31.743Z,100637.00
2023-02-03T04:59:58.562Z,100621.00
2023-02-03T05:02:25.371Z,100623.00
2023-02-03T05:04:52.506Z,100622.00
2023-02-03T05:07:19.352Z,100625.00
2023-02-03T05:09:46.186Z,100628.00
2023-02-03T05:12:13.122Z,100614.00
2023-02-03T05:14:39.973Z,100597.00
2023-02-03T05:17:06.820Z,100598.00
2023-02-03T05:19:33.620Z,100602.00
2023-02-03T05:22:00.416Z,100598.00
2023-02-03T05:24:27.266Z,100579.00
2023-02-03T05:26:54.045Z,100569.00
2023-02-03T05:29:21.059Z,100561.00
2023-02-03T05:31:48.010Z,100566.00
2023-02-03T05:34:14.872Z,100558.00
2023-02-03T05:36:41.706Z,100548.00
2023-02-03T05:39:08.639Z,100545.00
2023-02-03T05:41:54.101Z,100527.00
2023-02-03T05:44:27.466Z,100526.00
2023-02-03T05:46:55.617Z,100542.00
2023-02-03T05:49:25.763Z,100525.00
2023-02-03T05:51:53.981Z,100516.00
2023-02-03T05:54:20.925Z,100508.00
2023-02-03T05:56:47.730Z,100511.00
2023-02-03T05:59:14.636Z,100499.00
2023-02-03T06:01:41.472Z,100495.00
2023-02-03T06:04:08.469Z,100480.00
2023-02-03T06:06:35.457Z,100488.00
2023-02-03T06:09:07.183Z,100483.00
2023-02-03T06:11:35.765Z,100474.00
2023-02-03T06:14:02.911Z,100465.00
2023-02-03T06:16:29.775Z,100464.00
2023-02-03T06:19:01.070Z,100449.00
2023-02-03T06:21:28.346Z,100454.00
2023-02-03T06:23:56.545Z,100436.00
2023-02-03T06:26:23.662Z,100448.00
2023-02-03T06:28:50.525Z,100438.00
2023-02-03T06:31:17.459Z,100441.00
2023-02-03T06:33:44.574Z,100458.00
2023-02-03T06:36:11.692Z,100433.00
2023-02-03T06:38:38.537Z,100440.00
2023-02-03T06:41:05.345Z,100447.00
2023-02-03T06:43:32.190Z,100448.00
2023-02-03T06:45:59.109Z,100447.00
2023-02-03T06:48:26.052Z,100438.00
2023-02-03T06:50:52.907Z,100454.00
2023-02-03T06:53:19.780Z,100465.00
2023-02-03T06:55:48.008Z,100473.00
2023-02-03T06:58:15.899Z,100467.00
2023-02-03T07:00:42.746Z,100492.00
2023-02-03T07:03:09.531Z,100490.00
2023-02-03T07:05:37.052Z,100503.00
2023-02-03T07:08:03.937Z,100503.00
2023-02-03T07:10:31.023Z,100493.00
2023-02-03T07:13:02.998Z,100494.00
2023-02-03T07:15:29.810Z,100505.00
2023-02-03T07:17:56.816Z,100503.00
2023-02-03T07:20:24.706Z,100509.00
2023-02-03T07:22:53.092Z,100510.00
2023-02-03T07:25:20.532Z,100508.00
2023-02-03T07:27:47.468Z,100538.00
2023-02-03T07:30:14.535Z,100522.00
2023-02-03T07:32:41.350Z,100510.00
2023-02-03T07:35:08.769Z,100514.00
2023-02-03T07:37:35.967Z,100527.00
2023-02-03T07:40:02.839Z,100512.00
2023-02-03T07:42:29.633Z,100518.00
2023-02-03T07:44:56.487Z,100507.00
2023-02-03T07:47:23.289Z,100525.00
2023-02-03T07:49:50.136Z,100504.00
2023-02-03T07:52:16.946Z,100497.00
2023-02-03T07:54:43.758Z,100494.00
2023-02-03T07:57:10.611Z,100509.00
2023-02-03T07:59:37.503Z,100512.00
2023-02-03T08:02:04.542Z,100526.00
2023-02-03T08:04:31.673Z,100546.00
2023-02-03T08:06:58.523Z,100544.00
2023-02-03T08:09:25.331Z,100537.00
2023-02-03T08:11:52.134Z,100536.00
2023-02-03T08:14:18.951Z,100547.00
2023-02-03T08:16:46.264Z,100532.00
2023-02-03T08:19:13.341Z,100535.00
2023-02-03T08:21:40.185Z,100547.00
2023-02-03T08:24:07.143Z,100548.00
2023-02-03T08:26:35.248Z,100548.00
2023-02-03T08:29:02.236Z,100537.00
2023-02-03T08:31:29.179Z,100526.00
2023-02-03T08:33:56.138Z,100530.00
2023-02-03T08:36:23.127Z,100552.00
2023-02-03T08:38:49.957Z,100546.00
2023-02-03T08:41:18.330Z,100558.00
2023-02-03T08:43:45.683Z,100564.00
2023-02-03T08:46:13.346Z,100546.00
2023-02-03T08:48:40.810Z,100551.00
2023-02-03T08:51:16.261Z,100557.00
2023-02-03T08:53:43.302Z,100591.00
2023-02-03T08:56:12.095Z,100596.00
2023-02-03T08:58:39.433Z,100620.00
2023-02-03T09:01:13.470Z,100609.00
2023-02-03T09:03:40.906Z,100632.00
2023-02-03T09:06:08.500Z,100638.00
2023-02-03T09:08:35.424Z,100635.00
2023-02-03T09:11:02.837Z,100648.00
2023-02-03T09:13:30.508Z,100657.00
2023-02-03T09:16:01.048Z,100658.00
2023-02-03T09:18:28.472Z,100690.00
2023-02-03T09:21:03.816Z,100670.00
2023-02-03T09:23:30.899Z,100667.00
2023-02-03T09:26:05.682Z,100675.00
2023-02-03T09:28:33.618Z,100682.00
2023-02-03T09:31:04.685Z,100660.00
2023-02-03T09:33:31.599Z,100655.00
2023-02-03T09:35:59.010Z,100640.00
2023-02-03T09:38:27.518Z,100644.00
2023-02-03T09:41:32.803Z,100657.00
2023-02-03T09:44:08.440Z,100626.00
2023-02-03T09:46:41.700Z,100633.00
2023-02-03T09:49:15.121Z,100643.00
2023-02-03T09:52:13.271Z,100648.00
2023-02-03T09:55:05.551Z,100653.00
2023-02-03T09:57:42.482Z,100696.00
2023-02-03T10:00:22.685Z,100704.00
2023-02-03T10:03:28.108Z,100689.00
2023-02-03T10:06:10.113Z,100662.00
2023-02-03T10:08:42.237Z,100670.00
2023-02-03T10:11:25.671Z,100648.00
2023-02-03T10:14:18.443Z,100633.00
2023-02-03T10:17:07.155Z,100689.00
2023-02-03T10:19:55.277Z,100714.00
2023-02-03T10:22:27.368Z,100709.00
2023-02-03T10:25:01.274Z,100666.00
2023-02-03T10:27:30.071Z,100674.00
2023-02-03T10:30:15.906Z,100692.00
2023-02-03T10:32:42.695Z,100684.00
2023-02-03T10:35:13.315Z,100672.00
2023-02-03T10:37:45.792Z,100677.00
2023-02-03T10:40:16.154Z,100666.00
2023-02-03T10:43:06.106Z,100665.00
2023-02-03T10:45:42.503Z,100690.00
2023-02-03T10:48:13.946Z,100679.00
2023-02-03T10:50:44.751Z,100686.00
2023-02-03T10:53:32.040Z,100702.00
2023-02-03T10:56:11.227Z,100714.00
2023-02-03T10:58:39.402Z,100723.00
2023-02-03T11:01:12.468Z,100755.00
2023-02-03T11:04:05.674Z,100752.00
2023-02-03T11:06:33.911Z,100766.00
2023-02-03T11:09:01.142Z,100760.00
2023-02-03T11:11:36.037Z,100786.00
2023-02-03T11:14:03.145Z,100777.00
2023-02-03T11:16:33.640Z,100776.00
2023-02-03T11:19:04.582Z,100780.00
2023-02-03T11:21:37.503Z,100758.00
2023-02-03T11:24:33.239Z,100777.00
2023-02-03T11:27:04.780Z,100759.00
2023-02-03T11:29:34.592Z,100783.00
2023-02-03T11:32:22.455Z,100797.00
2023-02-03T11:35:03.479Z,100782.00
2023-02-03T11:37:42.369Z,100778.00
2023-02-03T11:40:10.976Z,100780.00
2023-02-03T11:42:41.402Z,100790.00
2023-02-03T11:45:15.228Z,100802.00
2023-02-03T11:47:58.267Z,100782.00
2023-02-03T11:51:01.161Z,100778.00
2023-02-03T11:53:47.814Z,100778.00
2023-02-03T11:56:32.940Z,100758.00
2023-02-03T11:59:21.690Z,100778.00
2023-02-03T12:02:10.356Z,100782.00
2023-02-03T12:04:40.305Z,100789.00
2023-02-03T12:07:16.303Z,100784.00
2023-02-03T12:10:01.500Z,100748.00
2023-02-03T12:12:37.811Z,100721.00
2023-02-03T12:15:22.010Z,100732.00
2023-02-03T12:18:03.979Z,100724.00
2023-02-03T12:20:42.983Z,100713.00
2023-02-03T12:23:31.300Z,100715.00
2023-02-03T12:26:10.202Z,100711.00
2023-02-03T12:28:54.224Z,100701.00
2023-02-03T12:31:32.772Z,100706.00
2023-02-03T12:34:20.923Z,100707.00
2023-02-03T12:37:06.579Z,100716.00
2023-02-03T12:39:47.245Z,100718.00
2023-02-03T12:42:26.399Z,100717.00
2023-02-03T12:45:06.410Z,100716.00
2023-02-03T12:47:45.297Z,100717.00
2023-02-03T12:50:19.515Z,100748.00
2023-02-03T12:53:15.502Z,100766.00
2023-02-03T12:55:56.242Z,100760.00
2023-02-03T12:58:39.202Z,100768.00
2023-02-03T13:01:24.465Z,100770.00
2023-02-03T13:04:10.789Z,100785.00
2023-02-03T13:07:02.559Z,100796.00
2023-02-03T13:09:42.009Z,100792.00
2023-02-03T13:12:30.764Z,100801.00
2023-02-03T13:15:18.359Z,100791.00
2023-02-03T13:18:00.798Z,100809.00
2023-02-03T13:20:31.423Z,100820.00
2023-02-03T13:22:58.778Z,100821.00
2023-02-03T13:25:31.839Z,100822.00
2023-02-03T13:28:19.953Z,100814.00
2023-02-03T13:31:09.678Z,100844.00
2023-02-03T13:34:10.582Z,100852.00
2023-02-03T13:36:50.026Z,100863.00
2023-02-03T13:39:30.160Z,100856.00
2023-02-03T13:42:07.668Z,100859.00
2023-02-03T13:44:34.925Z,100864.00
2023-02-03T13:47:02.299Z,100857.00
2023-02-03T13:49:31.785Z,100873.00
2023-02-03T13:51:59.026Z,100877.00
2023-02-03T13:54:27.628Z,100863.00
2023-02-03T13:57:02.449Z,100854.00
2023-02-03T13:59:36.877Z,100858.00
2023-02-03T14:02:24.307Z,100879.00
2023-02-03T14:04:54.367Z,100874.00
2023-02-03T14:07:38.437Z,100885.00
2023-02-03T14:10:24.280Z,100870.00
2023-02-03T14:12:51.158Z,100869.00
2023-02-03T14:15:35.771Z,100864.00
2023-02-03T14:18:22.037Z,100886.00
2023-02-03T14:20:51.572Z,100866.00
2023-02-03T14:23:23.370Z,100887.00
2023-02-03T14:25:54.665Z,100883.00
2023-02-03T14:28:32.126Z,100898.00
2023-02-03T14:31:12.866Z,100888.00
2023-02-03T14:34:05.957Z,100874.00
2023-02-03T14:36:39.367Z,100910.00
2023-02-03T14:39:18.534Z,100898.00
2023-02-03T14:41:54.356Z,100918.00
2023-02-03T14:44:30.471Z,100907.00
2023-02-03T14:47:12.767Z,100909.00
2023-02-03T14:50:17.886Z,100899.00
2023-02-03T14:53:09.733Z,100901.00
2023-02-03T14:55:40.104Z,100912.00
2023-02-03T14:58:16.619Z,100916.00
2023-02-03T15:00:43.620Z,100908.00
2023-02-03T15:03:10.430Z,100922.00
2023-02-03T15:05:43.062Z,100928.00
2023-02-03T15:08:44.564Z,100952.00
2023-02-03T15:11:33.009Z,100933.00
2023-02-03T15:14:20.651Z,100946.00
2023-02-03T15:16:53.220Z,100959.00
2023-02-03T15:19:23.013Z,100956.00
2023-02-03T15:21:49.914Z,100947.00
2023-02-03T15:24:21.521Z,100950.00
2023-02-03T15:26:54.015Z,100942.00
2023-02-03T15:29:27.521Z,100944.00
2023-02-03T15:32:08.634Z,100919.00
2023-02-03T15:34:47.871Z,100932.00
2023-02-03T15:37:23.572Z,100915.00
2023-02-03T15:40:05.825Z,100906.00
2023-02-03T15:42:44.846Z,100917.00
2023-02-03T15:45:29.339Z,100917.00
2023-02-03T15:48:14.116Z,100917.00
2023-02-03T15:50:51.569Z,100908.00
2023-02-03T15:53:45.325Z,100911.00
2023-02-03T15:56:38.793Z,100921.00
2023-02-03T15:59:06.931Z,100931.00
2023-02-03T16:01:34.188Z,100939.00
2023-02-03T16:04:01.052Z,100920.00
2023-02-03T16:06:44.926Z,100927.00
2023-02-03T16:09:41.396Z,100943.00
2023-02-03T16:12:22.000Z,100954.00
2023-02-03T16:14:49.177Z,100949.00
2023-02-03T16:17:28.651Z,100957.00
2023-02-03T16:20:11.283Z,100962.00
2023-02-03T16:22:42.431Z,100956.00
2023-02-03T16:25:14.732Z,100978.00
2023-02-03T16:27:44.407Z,100969.00
2023-02-03T16:30:29.835Z,100982.00
2023-02-03T16:33:27.178Z,100989.00
2023-02-03T16:36:17.133Z,101001.00
2023-02-03T16:39:09.347Z,101024.00
2023-02-03T16:41:55.542Z,101031.00
2023-02-03T16:44:41.199Z,101045.00
